sensor_id;sensor_type;location;lat;lon;timestamp;P1;durP1;ratioP1;P2;durP2;ratioP2
27706;SDS011;36332;51.384;0.040;2023-05-07T00:02:12;47.78;;;19.85;;
27706;SDS011;36332;51.384;0.040;2023-05-07T00:04:40;44.38;;;19.88;;
27706;SDS011;36332;51.384;0.040;2023-05-07T00:07:07;40.28;;;18.33;;
27706;SDS011;36332;51.384;0.040;2023-05-07T00:09:35;37.60;;;19.42;;
27706;SDS011;36332;51.384;0.040;2023-05-07T00:12:03;45.45;;;18.77;;
27706;SDS011;36332;51.384;0.040;2023-05-07T00:14:31;45.90;;;20.98;;
27706;SDS011;36332;51.384;0.040;2023-05-07T00:16:59;40.47;;;20.80;;
27706;SDS011;36332;51.384;0.040;2023-05-07T00:19:26;48.45;;;20.05;;
27706;SDS011;36332;51.384;0.040;2023-05-07T00:21:54;37.55;;;19.45;;
27706;SDS011;36332;51.384;0.040;2023-05-07T00:24:22;47.22;;;18.77;;
27706;SDS011;36332;51.384;0.040;2023-05-07T00:26:50;48.38;;;20.08;;
27706;SDS011;36332;51.384;0.040;2023-05-07T00:29:19;33.50;;;18.50;;
27706;SDS011;36332;51.384;0.040;2023-05-07T00:31:48;35.25;;;19.23;;
27706;SDS011;36332;51.384;0.040;2023-05-07T00:34:17;37.17;;;19.13;;
27706;SDS011;36332;51.384;0.040;2023-05-07T00:36:45;36.88;;;18.33;;
27706;SDS011;36332;51.384;0.040;2023-05-07T00:39:13;38.90;;;19.55;;
27706;SDS011;36332;51.384;0.040;2023-05-07T00:41:41;51.65;;;20.27;;
27706;SDS011;36332;51.384;0.040;2023-05-07T00:44:09;53.10;;;24.38;;
27706;SDS011;36332;51.384;0.040;2023-05-07T00:46:37;52.40;;;22.85;;
27706;SDS011;36332;51.384;0.040;2023-05-07T00:49:05;36.47;;;19.90;;
27706;SDS011;36332;51.384;0.040;2023-05-07T00:51:33;47.72;;;20.65;;
27706;SDS011;36332;51.384;0.040;2023-05-07T00:54:02;38.42;;;19.30;;
27706;SDS011;36332;51.384;0.040;2023-05-07T00:56:30;41.90;;;21.23;;
27706;SDS011;36332;51.384;0.040;2023-05-07T00:58:59;39.30;;;20.30;;
27706;SDS011;36332;51.384;0.040;2023-05-07T01:01:28;41.45;;;19.80;;
27706;SDS011;36332;51.384;0.040;2023-05-07T01:03:57;45.15;;;20.75;;
27706;SDS011;36332;51.384;0.040;2023-05-07T01:06:25;34.17;;;17.48;;
27706;SDS011;36332;51.384;0.040;2023-05-07T01:08:55;37.78;;;17.25;;
27706;SDS011;36332;51.384;0.040;2023-05-07T01:11:24;41.63;;;19.17;;
27706;SDS011;36332;51.384;0.040;2023-05-07T01:13:53;36.60;;;17.15;;
27706;SDS011;36332;51.384;0.040;2023-05-07T01:16:21;34.10;;;17.08;;
27706;SDS011;36332;51.384;0.040;2023-05-07T01:18:49;31.13;;;14.52;;
27706;SDS011;36332;51.384;0.040;2023-05-07T01:21:18;27.80;;;14.40;;
27706;SDS011;36332;51.384;0.040;2023-05-07T01:23:49;33.67;;;16.95;;
27706;SDS011;36332;51.384;0.040;2023-05-07T01:26:16;29.33;;;15.25;;
27706;SDS011;36332;51.384;0.040;2023-05-07T01:28:46;23.02;;;15.00;;
27706;SDS011;36332;51.384;0.040;2023-05-07T01:31:13;32.17;;;15.18;;
27706;SDS011;36332;51.384;0.040;2023-05-07T01:33:43;24.15;;;12.65;;
27706;SDS011;36332;51.384;0.040;2023-05-07T01:36:12;21.90;;;12.23;;
27706;SDS011;36332;51.384;0.040;2023-05-07T01:38:41;20.25;;;11.90;;
27706;SDS011;36332;51.384;0.040;2023-05-07T01:41:09;19.90;;;11.45;;
27706;SDS011;36332;51.384;0.040;2023-05-07T01:43:37;21.98;;;12.75;;
27706;SDS011;36332;51.384;0.040;2023-05-07T01:46:07;19.35;;;12.93;;
27706;SDS011;36332;51.384;0.040;2023-05-07T01:48:37;18.20;;;10.90;;
27706;SDS011;36332;51.384;0.040;2023-05-07T01:51:05;18.83;;;11.52;;
27706;SDS011;36332;51.384;0.040;2023-05-07T01:53:37;21.90;;;12.13;;
27706;SDS011;36332;51.384;0.040;2023-05-07T01:56:06;23.15;;;12.30;;
27706;SDS011;36332;51.384;0.040;2023-05-07T01:58:36;16.23;;;11.10;;
27706;SDS011;36332;51.384;0.040;2023-05-07T02:01:03;16.23;;;11.43;;
27706;SDS011;36332;51.384;0.040;2023-05-07T02:03:31;18.85;;;11.00;;
27706;SDS011;36332;51.384;0.040;2023-05-07T02:06:07;18.25;;;10.30;;
27706;SDS011;36332;51.384;0.040;2023-05-07T02:08:38;18.92;;;11.02;;
27706;SDS011;36332;51.384;0.040;2023-05-07T02:11:06;13.77;;;10.23;;
27706;SDS011;36332;51.384;0.040;2023-05-07T02:13:35;19.63;;;11.88;;
27706;SDS011;36332;51.384;0.040;2023-05-07T02:16:03;15.43;;;10.52;;
27706;SDS011;36332;51.384;0.040;2023-05-07T02:18:31;15.15;;;11.43;;
27706;SDS011;36332;51.384;0.040;2023-05-07T02:20:59;17.35;;;11.27;;
27706;SDS011;36332;51.384;0.040;2023-05-07T02:23:27;17.60;;;11.65;;
27706;SDS011;36332;51.384;0.040;2023-05-07T02:25:55;15.55;;;11.25;;
27706;SDS011;36332;51.384;0.040;2023-05-07T02:28:23;12.63;;;10.57;;
27706;SDS011;36332;51.384;0.040;2023-05-07T02:30:55;17.10;;;11.27;;
27706;SDS011;36332;51.384;0.040;2023-05-07T02:33:25;17.63;;;12.18;;
27706;SDS011;36332;51.384;0.040;2023-05-07T02:35:53;19.00;;;11.10;;
27706;SDS011;36332;51.384;0.040;2023-05-07T02:38:21;13.50;;;10.88;;
27706;SDS011;36332;51.384;0.040;2023-05-07T02:40:49;16.05;;;10.57;;
27706;SDS011;36332;51.384;0.040;2023-05-07T02:43:16;18.23;;;11.88;;
27706;SDS011;36332;51.384;0.040;2023-05-07T02:45:47;18.05;;;13.57;;
27706;SDS011;36332;51.384;0.040;2023-05-07T02:48:15;21.20;;;14.18;;
27706;SDS011;36332;51.384;0.040;2023-05-07T02:50:42;17.73;;;12.93;;
27706;SDS011;36332;51.384;0.040;2023-05-07T02:53:12;17.90;;;12.52;;
27706;SDS011;36332;51.384;0.040;2023-05-07T02:55:39;19.60;;;13.43;;
27706;SDS011;36332;51.384;0.040;2023-05-07T02:58:06;22.85;;;13.85;;
27706;SDS011;36332;51.384;0.040;2023-05-07T03:00:36;18.73;;;12.35;;
27706;SDS011;36332;51.384;0.040;2023-05-07T03:03:13;17.17;;;12.18;;
27706;SDS011;36332;51.384;0.040;2023-05-07T03:05:41;22.17;;;14.63;;
27706;SDS011;36332;51.384;0.040;2023-05-07T03:08:10;20.98;;;14.25;;
27706;SDS011;36332;51.384;0.040;2023-05-07T03:10:38;14.23;;;10.30;;
27706;SDS011;36332;51.384;0.040;2023-05-07T03:13:05;17.00;;;12.18;;
27706;SDS011;36332;51.384;0.040;2023-05-07T03:15:34;18.63;;;12.98;;
27706;SDS011;36332;51.384;0.040;2023-05-07T03:18:01;16.38;;;11.70;;
27706;SDS011;36332;51.384;0.040;2023-05-07T03:20:29;20.00;;;13.23;;
27706;SDS011;36332;51.384;0.040;2023-05-07T03:22:57;17.55;;;11.95;;
27706;SDS011;36332;51.384;0.040;2023-05-07T03:25:25;15.25;;;11.10;;
27706;SDS011;36332;51.384;0.040;2023-05-07T03:27:53;17.05;;;12.02;;
27706;SDS011;36332;51.384;0.040;2023-05-07T03:30:26;17.05;;;12.45;;
27706;SDS011;36332;51.384;0.040;2023-05-07T03:32:54;18.95;;;11.63;;
27706;SDS011;36332;51.384;0.040;2023-05-07T03:35:21;17.88;;;11.10;;
27706;SDS011;36332;51.384;0.040;2023-05-07T03:37:49;20.73;;;11.50;;
27706;SDS011;36332;51.384;0.040;2023-05-07T03:40:18;16.90;;;12.40;;
27706;SDS011;36332;51.384;0.040;2023-05-07T03:42:50;18.42;;;12.07;;
27706;SDS011;36332;51.384;0.040;2023-05-07T03:45:20;17.83;;;12.07;;
27706;SDS011;36332;51.384;0.040;2023-05-07T03:50:24;17.35;;;11.63;;
27706;SDS011;36332;51.384;0.040;2023-05-07T03:52:51;18.85;;;12.02;;
27706;SDS011;36332;51.384;0.040;2023-05-07T03:55:21;18.50;;;11.57;;
27706;SDS011;36332;51.384;0.040;2023-05-07T03:57:54;18.77;;;11.55;;
27706;SDS011;36332;51.384;0.040;2023-05-07T04:00:22;18.77;;;11.93;;
27706;SDS011;36332;51.384;0.040;2023-05-07T04:02:49;22.27;;;12.68;;
27706;SDS011;36332;51.384;0.040;2023-05-07T04:05:24;17.98;;;13.07;;
27706;SDS011;36332;51.384;0.040;2023-05-07T04:07:57;18.35;;;10.93;;
27706;SDS011;36332;51.384;0.040;2023-05-07T04:10:32;20.80;;;12.48;;
27706;SDS011;36332;51.384;0.040;2023-05-07T04:13:03;20.75;;;12.38;;
27706;SDS011;36332;51.384;0.040;2023-05-07T04:15:32;22.77;;;11.45;;
27706;SDS011;36332;51.384;0.040;2023-05-07T04:18:00;16.50;;;11.95;;
27706;SDS011;36332;51.384;0.040;2023-05-07T04:20:29;18.60;;;11.63;;
27706;SDS011;36332;51.384;0.040;2023-05-07T04:23:01;16.95;;;12.38;;
27706;SDS011;36332;51.384;0.040;2023-05-07T04:25:30;19.60;;;11.07;;
27706;SDS011;36332;51.384;0.040;2023-05-07T04:28:06;19.88;;;12.20;;
27706;SDS011;36332;51.384;0.040;2023-05-07T04:30:34;19.40;;;12.32;;
27706;SDS011;36332;51.384;0.040;2023-05-07T04:33:03;20.52;;;12.82;;
27706;SDS011;36332;51.384;0.040;2023-05-07T04:35:31;19.75;;;11.23;;
27706;SDS011;36332;51.384;0.040;2023-05-07T04:37:59;17.65;;;11.70;;
27706;SDS011;36332;51.384;0.040;2023-05-07T04:40:28;17.55;;;11.00;;
27706;SDS011;36332;51.384;0.040;2023-05-07T04:42:57;18.00;;;12.05;;
27706;SDS011;36332;51.384;0.040;2023-05-07T04:45:25;15.10;;;10.68;;
27706;SDS011;36332;51.384;0.040;2023-05-07T04:47:54;17.30;;;11.30;;
27706;SDS011;36332;51.384;0.040;2023-05-07T04:50:22;19.58;;;12.32;;
27706;SDS011;36332;51.384;0.040;2023-05-07T04:52:55;16.80;;;10.50;;
27706;SDS011;36332;51.384;0.040;2023-05-07T04:55:23;17.65;;;12.02;;
27706;SDS011;36332;51.384;0.040;2023-05-07T04:57:51;19.05;;;12.27;;
27706;SDS011;36332;51.384;0.040;2023-05-07T05:00:20;18.98;;;11.57;;
27706;SDS011;36332;51.384;0.040;2023-05-07T05:02:50;19.30;;;11.57;;
27706;SDS011;36332;51.384;0.040;2023-05-07T05:05:20;17.70;;;12.02;;
27706;SDS011;36332;51.384;0.040;2023-05-07T05:07:50;17.98;;;13.07;;
27706;SDS011;36332;51.384;0.040;2023-05-07T05:10:20;18.33;;;12.48;;
27706;SDS011;36332;51.384;0.040;2023-05-07T05:12:51;20.90;;;12.57;;
27706;SDS011;36332;51.384;0.040;2023-05-07T05:15:20;20.42;;;12.75;;
27706;SDS011;36332;51.384;0.040;2023-05-07T05:17:48;20.35;;;12.45;;
27706;SDS011;36332;51.384;0.040;2023-05-07T05:20:17;21.00;;;13.32;;
27706;SDS011;36332;51.384;0.040;2023-05-07T05:22:46;21.67;;;12.70;;
27706;SDS011;36332;51.384;0.040;2023-05-07T05:25:14;19.95;;;12.52;;
27706;SDS011;36332;51.384;0.040;2023-05-07T05:27:42;22.52;;;13.50;;
27706;SDS011;36332;51.384;0.040;2023-05-07T05:30:10;21.17;;;13.52;;
27706;SDS011;36332;51.384;0.040;2023-05-07T05:32:40;21.38;;;14.10;;
27706;SDS011;36332;51.384;0.040;2023-05-07T05:35:08;21.55;;;14.43;;
27706;SDS011;36332;51.384;0.040;2023-05-07T05:37:36;21.33;;;13.38;;
27706;SDS011;36332;51.384;0.040;2023-05-07T05:40:06;22.92;;;14.68;;
27706;SDS011;36332;51.384;0.040;2023-05-07T05:42:34;25.40;;;16.30;;
27706;SDS011;36332;51.384;0.040;2023-05-07T05:45:02;22.55;;;14.40;;
27706;SDS011;36332;51.384;0.040;2023-05-07T05:47:32;21.55;;;13.88;;
27706;SDS011;36332;51.384;0.040;2023-05-07T05:50:01;26.25;;;14.70;;
27706;SDS011;36332;51.384;0.040;2023-05-07T05:52:30;22.73;;;14.13;;
27706;SDS011;36332;51.384;0.040;2023-05-07T05:54:58;24.05;;;14.95;;
27706;SDS011;36332;51.384;0.040;2023-05-07T05:57:25;24.02;;;14.63;;
27706;SDS011;36332;51.384;0.040;2023-05-07T05:59:55;22.05;;;14.07;;
27706;SDS011;36332;51.384;0.040;2023-05-07T06:02:23;26.50;;;15.00;;
27706;SDS011;36332;51.384;0.040;2023-05-07T06:04:52;22.23;;;14.30;;
27706;SDS011;36332;51.384;0.040;2023-05-07T06:07:22;23.65;;;14.65;;
27706;SDS011;36332;51.384;0.040;2023-05-07T06:09:50;22.27;;;14.05;;
27706;SDS011;36332;51.384;0.040;2023-05-07T06:12:17;26.15;;;13.65;;
27706;SDS011;36332;51.384;0.040;2023-05-07T06:14:46;21.02;;;14.00;;
27706;SDS011;36332;51.384;0.040;2023-05-07T06:17:15;21.48;;;12.27;;
27706;SDS011;36332;51.384;0.040;2023-05-07T06:19:47;21.17;;;13.50;;
27706;SDS011;36332;51.384;0.040;2023-05-07T06:22:17;24.88;;;12.90;;
27706;SDS011;36332;51.384;0.040;2023-05-07T06:24:44;23.10;;;13.82;;
27706;SDS011;36332;51.384;0.040;2023-05-07T06:27:13;21.63;;;12.43;;
27706;SDS011;36332;51.384;0.040;2023-05-07T06:29:40;22.85;;;13.93;;
27706;SDS011;36332;51.384;0.040;2023-05-07T06:32:13;21.42;;;12.65;;
27706;SDS011;36332;51.384;0.040;2023-05-07T06:34:43;19.85;;;12.82;;
27706;SDS011;36332;51.384;0.040;2023-05-07T06:37:12;21.38;;;13.68;;
27706;SDS011;36332;51.384;0.040;2023-05-07T06:39:52;21.90;;;12.90;;
27706;SDS011;36332;51.384;0.040;2023-05-07T06:42:19;19.65;;;11.32;;
27706;SDS011;36332;51.384;0.040;2023-05-07T06:44:48;18.33;;;11.35;;
27706;SDS011;36332;51.384;0.040;2023-05-07T06:47:17;18.33;;;10.73;;
27706;SDS011;36332;51.384;0.040;2023-05-07T06:49:50;18.40;;;12.10;;
27706;SDS011;36332;51.384;0.040;2023-05-07T06:52:20;22.20;;;12.05;;
27706;SDS011;36332;51.384;0.040;2023-05-07T06:54:50;17.83;;;11.13;;
27706;SDS011;36332;51.384;0.040;2023-05-07T06:57:20;18.45;;;10.20;;
27706;SDS011;36332;51.384;0.040;2023-05-07T06:59:48;17.60;;;10.25;;
27706;SDS011;36332;51.384;0.040;2023-05-07T07:02:16;17.98;;;10.85;;
27706;SDS011;36332;51.384;0.040;2023-05-07T07:04:46;14.23;;;8.85;;
27706;SDS011;36332;51.384;0.040;2023-05-07T07:07:14;15.90;;;9.23;;
27706;SDS011;36332;51.384;0.040;2023-05-07T07:09:44;19.27;;;10.07;;
27706;SDS011;36332;51.384;0.040;2023-05-07T07:12:14;17.83;;;10.13;;
27706;SDS011;36332;51.384;0.040;2023-05-07T07:14:42;15.50;;;9.13;;
27706;SDS011;36332;51.384;0.040;2023-05-07T07:17:12;15.05;;;9.65;;
27706;SDS011;36332;51.384;0.040;2023-05-07T07:19:39;14.75;;;9.77;;
27706;SDS011;36332;51.384;0.040;2023-05-07T07:22:08;17.33;;;9.60;;
27706;SDS011;36332;51.384;0.040;2023-05-07T07:24:36;15.25;;;9.35;;
27706;SDS011;36332;51.384;0.040;2023-05-07T07:27:06;22.13;;;9.52;;
27706;SDS011;36332;51.384;0.040;2023-05-07T07:29:34;16.48;;;9.05;;
27706;SDS011;36332;51.384;0.040;2023-05-07T07:32:03;16.73;;;8.85;;
27706;SDS011;36332;51.384;0.040;2023-05-07T07:34:31;19.08;;;9.90;;
27706;SDS011;36332;51.384;0.040;2023-05-07T07:37:00;16.27;;;8.80;;
27706;SDS011;36332;51.384;0.040;2023-05-07T07:39:33;16.75;;;9.98;;
27706;SDS011;36332;51.384;0.040;2023-05-07T07:42:01;16.30;;;10.07;;
27706;SDS011;36332;51.384;0.040;2023-05-07T07:44:29;14.77;;;9.85;;
27706;SDS011;36332;51.384;0.040;2023-05-07T07:47:04;14.45;;;8.50;;
27706;SDS011;36332;51.384;0.040;2023-05-07T07:49:32;18.08;;;9.95;;
27706;SDS011;36332;51.384;0.040;2023-05-07T07:52:04;16.23;;;10.15;;
27706;SDS011;36332;51.384;0.040;2023-05-07T07:54:35;17.80;;;10.23;;
27706;SDS011;36332;51.384;0.040;2023-05-07T07:57:04;17.17;;;9.98;;
27706;SDS011;36332;51.384;0.040;2023-05-07T07:59:33;18.92;;;10.80;;
27706;SDS011;36332;51.384;0.040;2023-05-07T08:02:01;19.45;;;10.60;;
27706;SDS011;36332;51.384;0.040;2023-05-07T08:04:29;19.92;;;10.77;;
27706;SDS011;36332;51.384;0.040;2023-05-07T08:07:03;19.75;;;11.70;;
27706;SDS011;36332;51.384;0.040;2023-05-07T08:09:34;17.60;;;11.02;;
27706;SDS011;36332;51.384;0.040;2023-05-07T08:12:04;16.63;;;10.57;;
27706;SDS011;36332;51.384;0.040;2023-05-07T08:14:34;18.92;;;10.15;;
27706;SDS011;36332;51.384;0.040;2023-05-07T08:17:05;17.67;;;10.73;;
27706;SDS011;36332;51.384;0.040;2023-05-07T08:19:34;17.60;;;11.07;;
27706;SDS011;36332;51.384;0.040;2023-05-07T08:22:02;21.00;;;11.82;;
27706;SDS011;36332;51.384;0.040;2023-05-07T08:24:33;15.50;;;10.70;;
27706;SDS011;36332;51.384;0.040;2023-05-07T08:27:01;19.02;;;10.65;;
27706;SDS011;36332;51.384;0.040;2023-05-07T08:29:29;18.73;;;10.25;;
27706;SDS011;36332;51.384;0.040;2023-05-07T08:31:57;18.10;;;11.95;;
27706;SDS011;36332;51.384;0.040;2023-05-07T08:34:25;18.30;;;12.18;;
27706;SDS011;36332;51.384;0.040;2023-05-07T08:36:54;17.05;;;12.43;;
27706;SDS011;36332;51.384;0.040;2023-05-07T08:39:24;15.77;;;11.68;;
27706;SDS011;36332;51.384;0.040;2023-05-07T08:41:55;21.33;;;12.00;;
27706;SDS011;36332;51.384;0.040;2023-05-07T08:44:26;20.70;;;12.85;;
27706;SDS011;36332;51.384;0.040;2023-05-07T08:46:59;19.67;;;12.05;;
27706;SDS011;36332;51.384;0.040;2023-05-07T08:49:30;23.08;;;13.18;;
27706;SDS011;36332;51.384;0.040;2023-05-07T08:51:58;17.15;;;12.00;;
27706;SDS011;36332;51.384;0.040;2023-05-07T08:54:27;20.45;;;13.43;;
27706;SDS011;36332;51.384;0.040;2023-05-07T08:56:57;21.55;;;13.63;;
27706;SDS011;36332;51.384;0.040;2023-05-07T08:59:25;22.20;;;14.98;;
27706;SDS011;36332;51.384;0.040;2023-05-07T09:01:53;29.55;;;15.80;;
27706;SDS011;36332;51.384;0.040;2023-05-07T09:04:21;23.38;;;15.45;;
27706;SDS011;36332;51.384;0.040;2023-05-07T09:06:49;22.48;;;16.48;;
27706;SDS011;36332;51.384;0.040;2023-05-07T09:09:21;26.98;;;16.33;;
27706;SDS011;36332;51.384;0.040;2023-05-07T09:11:56;22.52;;;15.32;;
27706;SDS011;36332;51.384;0.040;2023-05-07T09:14:27;26.77;;;15.45;;
27706;SDS011;36332;51.384;0.040;2023-05-07T09:16:56;15.93;;;12.35;;
27706;SDS011;36332;51.384;0.040;2023-05-07T09:19:24;16.20;;;11.68;;
27706;SDS011;36332;51.384;0.040;2023-05-07T09:22:01;18.80;;;10.70;;
27706;SDS011;36332;51.384;0.040;2023-05-07T09:24:38;15.55;;;10.35;;
27706;SDS011;36332;51.384;0.040;2023-05-07T09:27:09;13.73;;;9.23;;
27706;SDS011;36332;51.384;0.040;2023-05-07T09:29:41;12.35;;;8.77;;
27706;SDS011;36332;51.384;0.040;2023-05-07T09:32:11;12.90;;;8.70;;
27706;SDS011;36332;51.384;0.040;2023-05-07T09:34:40;10.13;;;8.07;;
27706;SDS011;36332;51.384;0.040;2023-05-07T09:37:08;12.52;;;8.57;;
27706;SDS011;36332;51.384;0.040;2023-05-07T09:39:43;11.57;;;7.85;;
27706;SDS011;36332;51.384;0.040;2023-05-07T09:42:15;11.98;;;8.48;;
27706;SDS011;36332;51.384;0.040;2023-05-07T09:44:44;9.38;;;6.93;;
27706;SDS011;36332;51.384;0.040;2023-05-07T09:47:18;10.35;;;7.07;;
27706;SDS011;36332;51.384;0.040;2023-05-07T09:49:50;9.20;;;6.72;;
27706;SDS011;36332;51.384;0.040;2023-05-07T09:52:24;7.80;;;6.63;;
27706;SDS011;36332;51.384;0.040;2023-05-07T09:54:56;8.18;;;6.68;;
27706;SDS011;36332;51.384;0.040;2023-05-07T09:57:28;8.32;;;5.53;;
27706;SDS011;36332;51.384;0.040;2023-05-07T10:00:02;7.43;;;5.45;;
27706;SDS011;36332;51.384;0.040;2023-05-07T10:02:46;5.75;;;4.80;;
27706;SDS011;36332;51.384;0.040;2023-05-07T10:05:24;5.45;;;4.75;;
27706;SDS011;36332;51.384;0.040;2023-05-07T10:07:56;6.03;;;4.60;;
27706;SDS011;36332;51.384;0.040;2023-05-07T10:10:25;6.03;;;5.43;;
27706;SDS011;36332;51.384;0.040;2023-05-07T10:12:54;7.50;;;6.00;;
27706;SDS011;36332;51.384;0.040;2023-05-07T10:15:29;7.38;;;6.05;;
27706;SDS011;36332;51.384;0.040;2023-05-07T10:17:59;7.20;;;5.75;;
27706;SDS011;36332;51.384;0.040;2023-05-07T10:20:28;7.80;;;5.82;;
27706;SDS011;36332;51.384;0.040;2023-05-07T10:22:56;7.00;;;5.90;;
27706;SDS011;36332;51.384;0.040;2023-05-07T10:25:33;6.65;;;5.03;;
27706;SDS011;36332;51.384;0.040;2023-05-07T10:28:08;8.68;;;5.13;;
27706;SDS011;36332;51.384;0.040;2023-05-07T10:30:48;7.95;;;5.88;;
27706;SDS011;36332;51.384;0.040;2023-05-07T10:33:35;7.97;;;6.00;;
27706;SDS011;36332;51.384;0.040;2023-05-07T10:36:05;7.57;;;5.18;;
27706;SDS011;36332;51.384;0.040;2023-05-07T10:38:35;6.13;;;4.68;;
27706;SDS011;36332;51.384;0.040;2023-05-07T10:41:03;7.20;;;5.25;;
27706;SDS011;36332;51.384;0.040;2023-05-07T10:43:39;7.70;;;6.00;;
27706;SDS011;36332;51.384;0.040;2023-05-07T10:46:11;10.93;;;6.78;;
27706;SDS011;36332;51.384;0.040;2023-05-07T10:51:38;7.40;;;5.28;;
27706;SDS011;36332;51.384;0.040;2023-05-07T11:00:05;7.68;;;5.78;;
27706;SDS011;36332;51.384;0.040;2023-05-07T11:03:09;8.57;;;4.85;;
27706;SDS011;36332;51.384;0.040;2023-05-07T11:06:08;7.85;;;4.95;;
27706;SDS011;36332;51.384;0.040;2023-05-07T11:08:54;7.70;;;6.25;;
27706;SDS011;36332;51.384;0.040;2023-05-07T11:11:44;10.05;;;6.50;;
27706;SDS011;36332;51.384;0.040;2023-05-07T11:17:17;8.52;;;5.68;;
27706;SDS011;36332;51.384;0.040;2023-05-07T11:19:51;6.50;;;5.03;;
27706;SDS011;36332;51.384;0.040;2023-05-07T11:22:54;7.28;;;5.60;;
27706;SDS011;36332;51.384;0.040;2023-05-07T11:25:32;4.80;;;4.40;;
27706;SDS011;36332;51.384;0.040;2023-05-07T11:28:10;13.50;;;7.18;;
27706;SDS011;36332;51.384;0.040;2023-05-07T11:30:56;10.90;;;6.82;;
27706;SDS011;36332;51.384;0.040;2023-05-07T11:33:25;15.32;;;7.57;;
27706;SDS011;36332;51.384;0.040;2023-05-07T11:35:55;11.95;;;6.57;;
27706;SDS011;36332;51.384;0.040;2023-05-07T11:38:30;8.10;;;5.75;;
27706;SDS011;36332;51.384;0.040;2023-05-07T11:41:02;11.27;;;6.72;;
27706;SDS011;36332;51.384;0.040;2023-05-07T11:43:32;7.13;;;5.40;;
27706;SDS011;36332;51.384;0.040;2023-05-07T11:46:07;6.38;;;4.90;;
27706;SDS011;36332;51.384;0.040;2023-05-07T11:48:39;8.43;;;6.03;;
27706;SDS011;36332;51.384;0.040;2023-05-07T11:51:08;8.88;;;5.57;;
27706;SDS011;36332;51.384;0.040;2023-05-07T11:53:36;12.27;;;7.13;;
27706;SDS011;36332;51.384;0.040;2023-05-07T11:56:10;7.05;;;5.85;;
27706;SDS011;36332;51.384;0.040;2023-05-07T11:58:39;9.82;;;6.35;;
27706;SDS011;36332;51.384;0.040;2023-05-07T12:01:09;5.93;;;5.32;;
27706;SDS011;36332;51.384;0.040;2023-05-07T12:03:39;6.13;;;5.50;;
27706;SDS011;36332;51.384;0.040;2023-05-07T12:06:15;10.48;;;6.47;;
27706;SDS011;36332;51.384;0.040;2023-05-07T12:08:44;9.73;;;6.22;;
27706;SDS011;36332;51.384;0.040;2023-05-07T12:11:21;7.57;;;6.40;;
27706;SDS011;36332;51.384;0.040;2023-05-07T12:13:50;7.72;;;6.95;;
27706;SDS011;36332;51.384;0.040;2023-05-07T12:16:18;10.02;;;5.95;;
27706;SDS011;36332;51.384;0.040;2023-05-07T12:18:46;9.98;;;6.70;;
27706;SDS011;36332;51.384;0.040;2023-05-07T12:21:14;6.55;;;5.85;;
27706;SDS011;36332;51.384;0.040;2023-05-07T12:23:44;7.10;;;6.40;;
27706;SDS011;36332;51.384;0.040;2023-05-07T12:26:12;9.20;;;6.93;;
27706;SDS011;36332;51.384;0.040;2023-05-07T12:28:40;11.10;;;7.40;;
27706;SDS011;36332;51.384;0.040;2023-05-07T12:31:08;7.38;;;6.47;;
27706;SDS011;36332;51.384;0.040;2023-05-07T12:33:35;6.03;;;5.45;;
27706;SDS011;36332;51.384;0.040;2023-05-07T12:36:05;8.00;;;6.40;;
27706;SDS011;36332;51.384;0.040;2023-05-07T12:38:37;8.63;;;7.60;;
27706;SDS011;36332;51.384;0.040;2023-05-07T12:41:06;9.68;;;6.75;;
27706;SDS011;36332;51.384;0.040;2023-05-07T12:43:35;7.32;;;6.53;;
27706;SDS011;36332;51.384;0.040;2023-05-07T12:46:04;7.13;;;5.93;;
27706;SDS011;36332;51.384;0.040;2023-05-07T12:48:33;7.03;;;6.03;;
27706;SDS011;36332;51.384;0.040;2023-05-07T12:51:03;7.15;;;5.72;;
27706;SDS011;36332;51.384;0.040;2023-05-07T12:53:33;9.68;;;6.55;;
27706;SDS011;36332;51.384;0.040;2023-05-07T12:56:06;7.78;;;5.45;;
27706;SDS011;36332;51.384;0.040;2023-05-07T12:58:34;16.75;;;6.40;;
27706;SDS011;36332;51.384;0.040;2023-05-07T13:01:06;6.85;;;5.82;;
27706;SDS011;36332;51.384;0.040;2023-05-07T13:03:37;8.38;;;6.07;;
27706;SDS011;36332;51.384;0.040;2023-05-07T13:06:09;9.68;;;6.47;;
27706;SDS011;36332;51.384;0.040;2023-05-07T13:08:39;8.35;;;5.85;;
27706;SDS011;36332;51.384;0.040;2023-05-07T13:11:10;7.38;;;5.95;;
27706;SDS011;36332;51.384;0.040;2023-05-07T13:13:39;9.90;;;6.47;;
27706;SDS011;36332;51.384;0.040;2023-05-07T13:16:09;8.10;;;7.30;;
27706;SDS011;36332;51.384;0.040;2023-05-07T13:18:38;10.32;;;6.43;;
27706;SDS011;36332;51.384;0.040;2023-05-07T13:21:07;6.38;;;5.72;;
27706;SDS011;36332;51.384;0.040;2023-05-07T13:23:35;7.05;;;6.32;;
27706;SDS011;36332;51.384;0.040;2023-05-07T13:26:02;6.18;;;5.57;;
27706;SDS011;36332;51.384;0.040;2023-05-07T13:28:51;6.05;;;5.45;;
27706;SDS011;36332;51.384;0.040;2023-05-07T13:31:20;6.03;;;5.43;;
27706;SDS011;36332;51.384;0.040;2023-05-07T13:33:48;7.28;;;6.43;;
27706;SDS011;36332;51.384;0.040;2023-05-07T13:36:15;6.57;;;5.32;;
27706;SDS011;36332;51.384;0.040;2023-05-07T13:38:43;7.80;;;5.75;;
27706;SDS011;36332;51.384;0.040;2023-05-07T13:41:11;6.47;;;5.80;;
27706;SDS011;36332;51.384;0.040;2023-05-07T13:43:40;6.82;;;6.07;;
27706;SDS011;36332;51.384;0.040;2023-05-07T13:46:08;6.10;;;5.35;;
27706;SDS011;36332;51.384;0.040;2023-05-07T13:48:37;9.45;;;4.97;;
27706;SDS011;36332;51.384;0.040;2023-05-07T13:51:04;5.55;;;4.68;;
27706;SDS011;36332;51.384;0.040;2023-05-07T13:53:32;5.47;;;4.47;;
27706;SDS011;36332;51.384;0.040;2023-05-07T13:56:00;5.38;;;3.92;;
27706;SDS011;36332;51.384;0.040;2023-05-07T13:58:31;5.85;;;4.78;;
27706;SDS011;36332;51.384;0.040;2023-05-07T14:00:59;5.25;;;4.65;;
27706;SDS011;36332;51.384;0.040;2023-05-07T14:03:27;6.40;;;4.03;;
27706;SDS011;36332;51.384;0.040;2023-05-07T14:05:54;3.38;;;2.90;;
27706;SDS011;36332;51.384;0.040;2023-05-07T14:08:24;4.78;;;3.60;;
27706;SDS011;36332;51.384;0.040;2023-05-07T14:10:52;3.38;;;3.00;;
27706;SDS011;36332;51.384;0.040;2023-05-07T14:13:20;5.22;;;3.28;;
27706;SDS011;36332;51.384;0.040;2023-05-07T14:15:48;3.67;;;2.70;;
27706;SDS011;36332;51.384;0.040;2023-05-07T14:18:15;4.75;;;3.58;;
27706;SDS011;36332;51.384;0.040;2023-05-07T14:20:43;4.43;;;4.03;;
27706;SDS011;36332;51.384;0.040;2023-05-07T14:23:13;4.50;;;3.80;;
27706;SDS011;36332;51.384;0.040;2023-05-07T14:25:41;4.78;;;3.35;;
27706;SDS011;36332;51.384;0.040;2023-05-07T14:28:10;4.63;;;3.58;;
27706;SDS011;36332;51.384;0.040;2023-05-07T14:30:37;4.53;;;4.13;;
27706;SDS011;36332;51.384;0.040;2023-05-07T14:33:06;3.70;;;3.38;;
27706;SDS011;36332;51.384;0.040;2023-05-07T14:35:33;3.95;;;2.90;;
27706;SDS011;36332;51.384;0.040;2023-05-07T14:38:01;6.78;;;2.92;;
27706;SDS011;36332;51.384;0.040;2023-05-07T14:40:29;3.67;;;2.60;;
27706;SDS011;36332;51.384;0.040;2023-05-07T14:42:57;9.40;;;3.60;;
27706;SDS011;36332;51.384;0.040;2023-05-07T14:45:25;5.40;;;3.17;;
27706;SDS011;36332;51.384;0.040;2023-05-07T14:47:53;6.38;;;2.75;;
27706;SDS011;36332;51.384;0.040;2023-05-07T14:50:20;3.15;;;2.47;;
27706;SDS011;36332;51.384;0.040;2023-05-07T14:52:48;5.82;;;2.35;;
27706;SDS011;36332;51.384;0.040;2023-05-07T14:55:16;3.13;;;2.42;;
27706;SDS011;36332;51.384;0.040;2023-05-07T14:57:43;4.03;;;2.67;;
27706;SDS011;36332;51.384;0.040;2023-05-07T15:00:11;3.90;;;2.70;;
27706;SDS011;36332;51.384;0.040;2023-05-07T15:02:40;2.67;;;2.35;;